« Back
NWS Peachtree City, Ga » Text Product » ATL Terminal Aerodrome Forecast


Printer-friendly Version
Current Version              Previous Versions:   1  2  3  4  5  6  7  8  9  

Terminal Aerodrome Forecast

036
FTUS42 KFFC 271301 AAA
TAFATL
TAF AMD
KATL 271301Z 2713/2818 VRB03KT P6SM FEW010 SCT030 SCT150
     FM271500 17008KT P6SM SCT030
     FM271800 17008KT P6SM VCSH BKN030
     FM272000 24007KT 6SM -SHRA BR BKN035
      TEMPO 2721/2724 3SM -TSRA BKN015CB
     FM280000 20005KT P6SM BKN040
     FM280500 VRB03KT P6SM SCT020 BKN080
     FM281300 16006KT P6SM BKN030=



USA.gov is the U.S. government's official web portal to all federal, state and local government web resources and services.